sensor_id;sensor_type;location;lat;lon;timestamp;pressure;altitude;pressure_sealevel;temperature;humidity
27429;BME280;14881;48.092;11.574;2023-02-28T00:00:04;95896.91;;;-4.18;100.00
27429;BME280;14881;48.092;11.574;2023-02-28T00:02:36;95896.28;;;-4.21;100.00
27429;BME280;14881;48.092;11.574;2023-02-28T00:05:06;95888.41;;;-4.29;100.00
27429;BME280;14881;48.092;11.574;2023-02-28T00:07:35;95891.44;;;-4.32;100.00
27429;BME280;14881;48.092;11.574;2023-02-28T00:10:06;95890.63;;;-4.32;100.00
27429;BME280;14881;48.092;11.574;2023-02-28T00:12:35;95888.56;;;-4.37;100.00
27429;BME280;14881;48.092;11.574;2023-02-28T00:15:06;95874.19;;;-4.42;100.00
27429;BME280;14881;48.092;11.574;2023-02-28T00:17:34;95882.59;;;-4.39;100.00
27429;BME280;14881;48.092;11.574;2023-02-28T00:20:03;95872.56;;;-4.43;100.00
27429;BME280;14881;48.092;11.574;2023-02-28T00:22:34;95879.41;;;-4.49;100.00
27429;BME280;14881;48.092;11.574;2023-02-28T00:25:02;95878.00;;;-4.51;100.00
27429;BME280;14881;48.092;11.574;2023-02-28T00:27:39;95868.81;;;-4.49;100.00
27429;BME280;14881;48.092;11.574;2023-02-28T00:30:09;95875.94;;;-4.49;100.00
27429;BME280;14881;48.092;11.574;2023-02-28T00:32:38;95880.44;;;-4.50;100.00
27429;BME280;14881;48.092;11.574;2023-02-28T00:35:07;95864.75;;;-4.51;100.00
27429;BME280;14881;48.092;11.574;2023-02-28T00:37:35;95865.09;;;-4.54;100.00
27429;BME280;14881;48.092;11.574;2023-02-28T00:40:03;95871.22;;;-4.54;100.00
27429;BME280;14881;48.092;11.574;2023-02-28T00:42:32;95871.97;;;-4.60;100.00
27429;BME280;14881;48.092;11.574;2023-02-28T00:45:03;95872.34;;;-4.63;100.00
27429;BME280;14881;48.092;11.574;2023-02-28T00:47:32;95865.56;;;-4.66;100.00
27429;BME280;14881;48.092;11.574;2023-02-28T00:50:03;95869.44;;;-4.68;100.00
27429;BME280;14881;48.092;11.574;2023-02-28T00:52:32;95877.38;;;-4.68;100.00
27429;BME280;14881;48.092;11.574;2023-02-28T00:55:00;95870.81;;;-4.72;100.00
27429;BME280;14881;48.092;11.574;2023-02-28T00:57:28;95874.00;;;-4.77;100.00
27429;BME280;14881;48.092;11.574;2023-02-28T00:59:57;95869.91;;;-4.79;100.00
27429;BME280;14881;48.092;11.574;2023-02-28T01:02:26;95869.72;;;-4.78;100.00
27429;BME280;14881;48.092;11.574;2023-02-28T01:04:54;95880.22;;;-4.84;100.00
27429;BME280;14881;48.092;11.574;2023-02-28T01:07:23;95872.28;;;-4.84;100.00
27429;BME280;14881;48.092;11.574;2023-02-28T01:09:51;95872.03;;;-4.89;100.00
27429;BME280;14881;48.092;11.574;2023-02-28T01:12:18;95865.44;;;-4.94;100.00
27429;BME280;14881;48.092;11.574;2023-02-28T01:14:46;95870.47;;;-4.99;100.00
27429;BME280;14881;48.092;11.574;2023-02-28T01:17:14;95870.47;;;-4.99;100.00
27429;BME280;14881;48.092;11.574;2023-02-28T01:19:43;95860.81;;;-5.06;100.00
27429;BME280;14881;48.092;11.574;2023-02-28T01:22:11;95861.81;;;-5.07;100.00
27429;BME280;14881;48.092;11.574;2023-02-28T01:24:39;95861.34;;;-5.11;100.00
27429;BME280;14881;48.092;11.574;2023-02-28T01:27:07;95853.69;;;-5.06;100.00
27429;BME280;14881;48.092;11.574;2023-02-28T01:29:35;95863.66;;;-5.08;100.00
27429;BME280;14881;48.092;11.574;2023-02-28T01:32:03;95860.19;;;-5.08;100.00
27429;BME280;14881;48.092;11.574;2023-02-28T01:34:30;95856.88;;;-5.10;100.00
27429;BME280;14881;48.092;11.574;2023-02-28T01:37:01;95853.41;;;-5.11;100.00
27429;BME280;14881;48.092;11.574;2023-02-28T01:39:29;95851.13;;;-5.14;100.00
27429;BME280;14881;48.092;11.574;2023-02-28T01:41:57;95853.13;;;-5.16;100.00
27429;BME280;14881;48.092;11.574;2023-02-28T01:44:55;95850.31;;;-5.14;100.00
27429;BME280;14881;48.092;11.574;2023-02-28T01:47:23;95846.38;;;-5.18;100.00
27429;BME280;14881;48.092;11.574;2023-02-28T01:49:53;95842.84;;;-5.26;100.00
27429;BME280;14881;48.092;11.574;2023-02-28T01:52:23;95848.13;;;-5.26;100.00
27429;BME280;14881;48.092;11.574;2023-02-28T01:54:54;95840.72;;;-5.30;100.00
27429;BME280;14881;48.092;11.574;2023-02-28T01:57:28;95839.91;;;-5.31;100.00
27429;BME280;14881;48.092;11.574;2023-02-28T01:59:59;95842.66;;;-5.39;100.00
27429;BME280;14881;48.092;11.574;2023-02-28T02:02:28;95840.63;;;-5.37;100.00
27429;BME280;14881;48.092;11.574;2023-02-28T02:04:59;95840.28;;;-5.34;100.00
27429;BME280;14881;48.092;11.574;2023-02-28T02:07:33;95835.09;;;-5.42;100.00
27429;BME280;14881;48.092;11.574;2023-02-28T02:10:04;95834.25;;;-5.42;100.00
27429;BME280;14881;48.092;11.574;2023-02-28T02:12:53;95839.09;;;-5.46;100.00
27429;BME280;14881;48.092;11.574;2023-02-28T02:15:30;95842.91;;;-5.48;100.00
27429;BME280;14881;48.092;11.574;2023-02-28T02:18:03;95839.09;;;-5.46;100.00
27429;BME280;14881;48.092;11.574;2023-02-28T02:20:46;95834.81;;;-5.47;100.00
27429;BME280;14881;48.092;11.574;2023-02-28T02:23:33;95831.69;;;-5.50;100.00
27429;BME280;14881;48.092;11.574;2023-02-28T02:26:45;95833.88;;;-5.54;100.00
27429;BME280;14881;48.092;11.574;2023-02-28T02:29:47;95835.72;;;-5.54;100.00
27429;BME280;14881;48.092;11.574;2023-02-28T02:32:45;95833.50;;;-5.51;100.00
27429;BME280;14881;48.092;11.574;2023-02-28T02:35:21;95835.25;;;-5.58;100.00
27429;BME280;14881;48.092;11.574;2023-02-28T02:37:56;95838.81;;;-5.51;100.00
27429;BME280;14881;48.092;11.574;2023-02-28T02:40:31;95829.22;;;-5.52;100.00
27429;BME280;14881;48.092;11.574;2023-02-28T02:43:08;95829.78;;;-5.56;100.00
27429;BME280;14881;48.092;11.574;2023-02-28T02:45:44;95826.41;;;-5.50;100.00
27429;BME280;14881;48.092;11.574;2023-02-28T02:48:17;95826.75;;;-5.53;100.00
27429;BME280;14881;48.092;11.574;2023-02-28T02:50:50;95827.88;;;-5.48;100.00
27429;BME280;14881;48.092;11.574;2023-02-28T02:53:23;95818.94;;;-5.47;100.00
27429;BME280;14881;48.092;11.574;2023-02-28T02:55:53;95818.09;;;-5.47;100.00
27429;BME280;14881;48.092;11.574;2023-02-28T02:58:27;95821.38;;;-5.45;100.00
27429;BME280;14881;48.092;11.574;2023-02-28T03:00:58;95820.75;;;-5.47;100.00
27429;BME280;14881;48.092;11.574;2023-02-28T03:03:29;95817.91;;;-5.46;100.00
27429;BME280;14881;48.092;11.574;2023-02-28T03:06:01;95823.84;;;-5.44;100.00
27429;BME280;14881;48.092;11.574;2023-02-28T03:08:35;95814.63;;;-5.48;100.00
27429;BME280;14881;48.092;11.574;2023-02-28T03:11:05;95818.19;;;-5.41;100.00
27429;BME280;14881;48.092;11.574;2023-02-28T03:13:44;95820.75;;;-5.47;100.00
27429;BME280;14881;48.092;11.574;2023-02-28T03:16:33;95820.94;;;-5.49;100.00
27429;BME280;14881;48.092;11.574;2023-02-28T03:21:59;95821.94;;;-5.50;100.00
27429;BME280;14881;48.092;11.574;2023-02-28T03:24:35;95822.09;;;-5.51;100.00
27429;BME280;14881;48.092;11.574;2023-02-28T03:27:10;95816.28;;;-5.47;100.00
27429;BME280;14881;48.092;11.574;2023-02-28T03:29:43;95817.28;;;-5.48;100.00
27429;BME280;14881;48.092;11.574;2023-02-28T03:32:18;95827.41;;;-5.37;100.00
27429;BME280;14881;48.092;11.574;2023-02-28T03:34:56;95824.50;;;-5.42;100.00
27429;BME280;14881;48.092;11.574;2023-02-28T03:37:32;95828.59;;;-5.39;100.00
27429;BME280;14881;48.092;11.574;2023-02-28T03:40:05;95819.22;;;-5.42;100.00
27429;BME280;14881;48.092;11.574;2023-02-28T03:42:36;95821.66;;;-5.40;100.00
27429;BME280;14881;48.092;11.574;2023-02-28T03:45:11;95816.81;;;-5.37;100.00
27429;BME280;14881;48.092;11.574;2023-02-28T03:47:48;95819.56;;;-5.30;100.00
27429;BME280;14881;48.092;11.574;2023-02-28T03:50:21;95825.66;;;-5.30;100.00
27429;BME280;14881;48.092;11.574;2023-02-28T03:52:57;95831.16;;;-5.31;100.00
27429;BME280;14881;48.092;11.574;2023-02-28T03:55:29;95830.16;;;-5.30;100.00
27429;BME280;14881;48.092;11.574;2023-02-28T03:58:03;95826.03;;;-5.33;100.00
27429;BME280;14881;48.092;11.574;2023-02-28T04:00:34;95832.97;;;-5.32;100.00
27429;BME280;14881;48.092;11.574;2023-02-28T04:03:03;95831.69;;;-5.36;100.00
27429;BME280;14881;48.092;11.574;2023-02-28T04:05:31;95832.97;;;-5.32;100.00
27429;BME280;14881;48.092;11.574;2023-02-28T04:08:05;95841.66;;;-5.38;100.00
27429;BME280;14881;48.092;11.574;2023-02-28T04:10:33;95844.09;;;-5.36;100.00
27429;BME280;14881;48.092;11.574;2023-02-28T04:13:01;95843.50;;;-5.38;100.00
27429;BME280;14881;48.092;11.574;2023-02-28T04:15:29;95852.69;;;-5.49;100.00
27429;BME280;14881;48.092;11.574;2023-02-28T04:18:00;95854.03;;;-5.53;100.00
27429;BME280;14881;48.092;11.574;2023-02-28T04:20:29;95861.72;;;-5.58;100.00
27429;BME280;14881;48.092;11.574;2023-02-28T04:22:56;95859.31;;;-5.68;100.00
27429;BME280;14881;48.092;11.574;2023-02-28T04:25:25;95856.84;;;-5.69;100.00
27429;BME280;14881;48.092;11.574;2023-02-28T04:27:53;95871.06;;;-5.70;100.00
27429;BME280;14881;48.092;11.574;2023-02-28T04:30:23;95871.38;;;-5.65;100.00
27429;BME280;14881;48.092;11.574;2023-02-28T04:32:51;95869.44;;;-5.71;100.00
27429;BME280;14881;48.092;11.574;2023-02-28T04:35:18;95865.34;;;-5.74;100.00
27429;BME280;14881;48.092;11.574;2023-02-28T04:37:46;95859.69;;;-5.71;100.00
27429;BME280;14881;48.092;11.574;2023-02-28T04:40:16;95860.72;;;-5.72;100.00
27429;BME280;14881;48.092;11.574;2023-02-28T04:42:45;95866.53;;;-5.62;100.00
27429;BME280;14881;48.092;11.574;2023-02-28T04:45:13;95859.91;;;-5.57;100.00
27429;BME280;14881;48.092;11.574;2023-02-28T04:47:40;95854.59;;;-5.57;100.00
27429;BME280;14881;48.092;11.574;2023-02-28T04:50:09;95862.81;;;-5.52;100.00
27429;BME280;14881;48.092;11.574;2023-02-28T04:52:40;95869.09;;;-5.53;100.00
27429;BME280;14881;48.092;11.574;2023-02-28T04:55:08;95868.09;;;-5.52;100.00
27429;BME280;14881;48.092;11.574;2023-02-28T04:57:36;95865.91;;;-5.49;100.00
27429;BME280;14881;48.092;11.574;2023-02-28T05:00:07;95865.38;;;-5.44;100.00
27429;BME280;14881;48.092;11.574;2023-02-28T05:02:38;95867.91;;;-5.36;100.00
27429;BME280;14881;48.092;11.574;2023-02-28T05:05:06;95878.34;;;-5.35;100.00
27429;BME280;14881;48.092;11.574;2023-02-28T05:07:34;95877.06;;;-5.39;100.00
27429;BME280;14881;48.092;11.574;2023-02-28T05:10:02;95885.91;;;-5.32;100.00
27429;BME280;14881;48.092;11.574;2023-02-28T05:12:31;95890.50;;;-5.26;100.00
27429;BME280;14881;48.092;11.574;2023-02-28T05:14:59;95888.84;;;-5.12;100.00
27429;BME280;14881;48.092;11.574;2023-02-28T05:17:30;95887.81;;;-4.96;100.00
27429;BME280;14881;48.092;11.574;2023-02-28T05:19:57;95882.16;;;-4.93;100.00
27429;BME280;14881;48.092;11.574;2023-02-28T05:22:40;95883.09;;;-4.86;100.00
27429;BME280;14881;48.092;11.574;2023-02-28T05:25:10;95880.88;;;-4.68;100.00
27429;BME280;14881;48.092;11.574;2023-02-28T05:27:41;95885.84;;;-4.58;100.00
27429;BME280;14881;48.092;11.574;2023-02-28T05:30:10;95890.84;;;-4.48;100.00
27429;BME280;14881;48.092;11.574;2023-02-28T05:32:40;95889.19;;;-4.35;100.00
27429;BME280;14881;48.092;11.574;2023-02-28T05:35:16;95887.69;;;-4.23;100.00
27429;BME280;14881;48.092;11.574;2023-02-28T05:37:44;95889.63;;;-4.10;100.00
27429;BME280;14881;48.092;11.574;2023-02-28T05:40:17;95890.97;;;-3.99;100.00
27429;BME280;14881;48.092;11.574;2023-02-28T05:42:46;95878.19;;;-3.89;100.00
27429;BME280;14881;48.092;11.574;2023-02-28T05:45:14;95883.16;;;-3.79;100.00
27429;BME280;14881;48.092;11.574;2023-02-28T05:47:44;95878.38;;;-3.69;100.00
27429;BME280;14881;48.092;11.574;2023-02-28T05:50:12;95877.81;;;-3.65;100.00
27429;BME280;14881;48.092;11.574;2023-02-28T05:52:40;95880.56;;;-3.52;100.00
27429;BME280;14881;48.092;11.574;2023-02-28T05:55:08;95878.34;;;-3.48;100.00
27429;BME280;14881;48.092;11.574;2023-02-28T05:57:36;95886.72;;;-3.44;100.00
27429;BME280;14881;48.092;11.574;2023-02-28T06:00:05;95888.16;;;-3.42;100.00
27429;BME280;14881;48.092;11.574;2023-02-28T06:02:33;95884.75;;;-3.36;100.00
27429;BME280;14881;48.092;11.574;2023-02-28T06:05:02;95888.47;;;-3.30;100.00
27429;BME280;14881;48.092;11.574;2023-02-28T06:07:30;95890.34;;;-3.24;100.00
27429;BME280;14881;48.092;11.574;2023-02-28T06:09:58;95895.06;;;-3.20;100.00
27429;BME280;14881;48.092;11.574;2023-02-28T06:12:25;95894.69;;;-3.17;100.00
27429;BME280;14881;48.092;11.574;2023-02-28T06:14:53;95895.72;;;-3.11;100.00
27429;BME280;14881;48.092;11.574;2023-02-28T06:17:21;95901.16;;;-2.98;100.00
27429;BME280;14881;48.092;11.574;2023-02-28T06:19:49;95905.84;;;-2.93;100.00
27429;BME280;14881;48.092;11.574;2023-02-28T06:22:18;95903.00;;;-2.92;100.00
27429;BME280;14881;48.092;11.574;2023-02-28T06:24:46;95899.38;;;-2.84;100.00
27429;BME280;14881;48.092;11.574;2023-02-28T06:27:14;95900.00;;;-2.82;100.00
27429;BME280;14881;48.092;11.574;2023-02-28T06:29:42;95901.84;;;-2.83;100.00
27429;BME280;14881;48.092;11.574;2023-02-28T06:32:09;95908.44;;;-2.72;100.00
27429;BME280;14881;48.092;11.574;2023-02-28T06:34:37;95902.72;;;-2.69;100.00
27429;BME280;14881;48.092;11.574;2023-02-28T06:37:05;95907.25;;;-2.63;100.00
27429;BME280;14881;48.092;11.574;2023-02-28T06:39:34;95907.06;;;-2.61;100.00
27429;BME280;14881;48.092;11.574;2023-02-28T06:42:02;95905.88;;;-2.52;100.00
27429;BME280;14881;48.092;11.574;2023-02-28T06:44:29;95909.53;;;-2.53;100.00
27429;BME280;14881;48.092;11.574;2023-02-28T06:47:02;95917.56;;;-2.47;100.00
27429;BME280;14881;48.092;11.574;2023-02-28T06:49:30;95915.53;;;-2.44;100.00
27429;BME280;14881;48.092;11.574;2023-02-28T06:51:58;95917.75;;;-2.48;100.00
27429;BME280;14881;48.092;11.574;2023-02-28T06:54:26;95913.09;;;-2.33;100.00
27429;BME280;14881;48.092;11.574;2023-02-28T06:56:57;95928.03;;;-2.32;100.00
27429;BME280;14881;48.092;11.574;2023-02-28T06:59:25;95928.25;;;-2.33;100.00
27429;BME280;14881;48.092;11.574;2023-02-28T07:01:53;95933.31;;;-2.38;100.00
27429;BME280;14881;48.092;11.574;2023-02-28T07:04:23;95933.31;;;-2.38;100.00
27429;BME280;14881;48.092;11.574;2023-02-28T07:06:52;95938.88;;;-2.33;100.00
27429;BME280;14881;48.092;11.574;2023-02-28T07:09:23;95935.63;;;-2.22;100.00
27429;BME280;14881;48.092;11.574;2023-02-28T07:11:57;95938.09;;;-2.21;100.00
27429;BME280;14881;48.092;11.574;2023-02-28T07:14:26;95939.38;;;-2.10;100.00
27429;BME280;14881;48.092;11.574;2023-02-28T07:16:54;95950.03;;;-2.03;100.00
27429;BME280;14881;48.092;11.574;2023-02-28T07:19:22;95943.47;;;-2.07;100.00
27429;BME280;14881;48.092;11.574;2023-02-28T07:21:50;95941.81;;;-2.15;100.00
27429;BME280;14881;48.092;11.574;2023-02-28T07:24:17;95941.84;;;-2.08;100.00
27429;BME280;14881;48.092;11.574;2023-02-28T07:26:47;95944.91;;;-2.12;100.00
27429;BME280;14881;48.092;11.574;2023-02-28T07:29:16;95946.78;;;-1.99;100.00
27429;BME280;14881;48.092;11.574;2023-02-28T07:31:44;95942.50;;;-1.93;100.00
27429;BME280;14881;48.092;11.574;2023-02-28T07:34:13;95936.97;;;-1.85;100.00
27429;BME280;14881;48.092;11.574;2023-02-28T07:36:41;95943.53;;;-1.94;100.00
27429;BME280;14881;48.092;11.574;2023-02-28T07:39:09;95929.00;;;-1.85;100.00
27429;BME280;14881;48.092;11.574;2023-02-28T07:41:36;95933.94;;;-1.76;100.00
27429;BME280;14881;48.092;11.574;2023-02-28T07:44:09;95931.28;;;-1.76;100.00
27429;BME280;14881;48.092;11.574;2023-02-28T07:46:40;95927.38;;;-1.66;100.00
27429;BME280;14881;48.092;11.574;2023-02-28T07:49:10;95931.06;;;-1.67;100.00
27429;BME280;14881;48.092;11.574;2023-02-28T07:51:37;95925.38;;;-1.58;100.00
27429;BME280;14881;48.092;11.574;2023-02-28T07:54:05;95930.28;;;-1.61;100.00
27429;BME280;14881;48.092;11.574;2023-02-28T07:56:34;95930.44;;;-1.69;100.00
27429;BME280;14881;48.092;11.574;2023-02-28T07:59:01;95932.91;;;-1.68;100.00
27429;BME280;14881;48.092;11.574;2023-02-28T08:01:29;95929.25;;;-1.60;100.00
27429;BME280;14881;48.092;11.574;2023-02-28T08:03:59;95935.38;;;-1.53;100.00
27429;BME280;14881;48.092;11.574;2023-02-28T08:06:27;95938.28;;;-1.42;100.00
27429;BME280;14881;48.092;11.574;2023-02-28T08:08:55;95942.78;;;-1.35;100.00
27429;BME280;14881;48.092;11.574;2023-02-28T08:11:24;95939.94;;;-1.41;100.00
27429;BME280;14881;48.092;11.574;2023-02-28T08:13:52;95941.56;;;-1.46;100.00
27429;BME280;14881;48.092;11.574;2023-02-28T08:16:20;95947.47;;;-1.51;100.00
27429;BME280;14881;48.092;11.574;2023-02-28T08:18:49;95957.72;;;-1.48;100.00
27429;BME280;14881;48.092;11.574;2023-02-28T08:21:19;95949.94;;;-1.36;100.00
27429;BME280;14881;48.092;11.574;2023-02-28T08:23:47;95949.34;;;-1.31;100.00
27429;BME280;14881;48.092;11.574;2023-02-28T08:26:16;95938.69;;;-1.25;100.00
27429;BME280;14881;48.092;11.574;2023-02-28T08:28:45;95948.94;;;-1.35;100.00
27429;BME280;14881;48.092;11.574;2023-02-28T08:31:14;95941.38;;;-1.25;100.00
27429;BME280;14881;48.092;11.574;2023-02-28T08:33:44;95949.13;;;-1.17;100.00
27429;BME280;14881;48.092;11.574;2023-02-28T08:36:12;95946.44;;;-1.03;100.00
27429;BME280;14881;48.092;11.574;2023-02-28T08:38:41;95950.78;;;-0.96;100.00
27429;BME280;14881;48.092;11.574;2023-02-28T08:41:11;95959.38;;;-0.87;100.00
27429;BME280;14881;48.092;11.574;2023-02-28T08:43:40;95962.25;;;-0.89;100.00
27429;BME280;14881;48.092;11.574;2023-02-28T08:46:08;95961.63;;;-0.84;100.00
27429;BME280;14881;48.092;11.574;2023-02-28T08:48:38;95959.56;;;-0.82;100.00
27429;BME280;14881;48.092;11.574;2023-02-28T08:51:08;95963.63;;;-0.60;100.00
27429;BME280;14881;48.092;11.574;2023-02-28T08:53:37;95964.66;;;-0.67;100.00
27429;BME280;14881;48.092;11.574;2023-02-28T08:56:08;95961.38;;;-0.63;100.00
27429;BME280;14881;48.092;11.574;2023-02-28T08:58:40;95972.88;;;-0.62;100.00
27429;BME280;14881;48.092;11.574;2023-02-28T09:01:09;95962.19;;;-0.56;100.00
27429;BME280;14881;48.092;11.574;2023-02-28T09:03:38;95968.56;;;-0.63;100.00
27429;BME280;14881;48.092;11.574;2023-02-28T09:06:08;95973.44;;;-0.47;100.00
27429;BME280;14881;48.092;11.574;2023-02-28T09:08:39;95975.72;;;-0.38;100.00
27429;BME280;14881;48.092;11.574;2023-02-28T09:11:08;95971.75;;;-0.28;100.00
27429;BME280;14881;48.092;11.574;2023-02-28T09:13:38;95977.03;;;-0.09;100.00
27429;BME280;14881;48.092;11.574;2023-02-28T09:16:07;95976.63;;;-0.06;100.00
27429;BME280;14881;48.092;11.574;2023-02-28T09:18:36;95964.41;;;0.12;100.00
27429;BME280;14881;48.092;11.574;2023-02-28T09:21:05;95973.38;;;0.30;100.00
27429;BME280;14881;48.092;11.574;2023-02-28T09:23:34;95973.94;;;0.39;100.00
27429;BME280;14881;48.092;11.574;2023-02-28T09:26:04;95976.16;;;0.49;100.00
27429;BME280;14881;48.092;11.574;2023-02-28T09:28:37;95980.69;;;0.42;100.00
27429;BME280;14881;48.092;11.574;2023-02-28T09:31:04;95983.78;;;0.39;100.00
27429;BME280;14881;48.092;11.574;2023-02-28T09:33:32;95978.44;;;0.45;100.00
27429;BME280;14881;48.092;11.574;2023-02-28T09:36:03;95985.81;;;0.50;100.00
27429;BME280;14881;48.092;11.574;2023-02-28T09:38:31;95992.19;;;0.49;100.00
27429;BME280;14881;48.092;11.574;2023-02-28T09:41:01;95995.91;;;0.41;100.00
27429;BME280;14881;48.092;11.574;2023-02-28T09:43:34;95995.28;;;0.46;100.00
27429;BME280;14881;48.092;11.574;2023-02-28T09:46:10;95997.78;;;0.72;100.00
27429;BME280;14881;48.092;11.574;2023-02-28T09:48:44;95989.63;;;0.92;100.00
27429;BME280;14881;48.092;11.574;2023-02-28T09:51:27;95993.72;;;0.94;100.00
27429;BME280;14881;48.092;11.574;2023-02-28T09:53:57;95998.06;;;1.20;100.00
27429;BME280;14881;48.092;11.574;2023-02-28T09:56:31;95998.63;;;1.22;100.00
27429;BME280;14881;48.092;11.574;2023-02-28T09:59:02;96001.81;;;1.13;100.00
27429;BME280;14881;48.092;11.574;2023-02-28T10:01:39;96013.03;;;1.21;100.00
27429;BME280;14881;48.092;11.574;2023-02-28T10:04:16;96003.88;;;1.11;100.00
27429;BME280;14881;48.092;11.574;2023-02-28T10:06:46;95993.28;;;0.97;100.00
27429;BME280;14881;48.092;11.574;2023-02-28T10:09:18;96005.75;;;0.79;100.00
27429;BME280;14881;48.092;11.574;2023-02-28T10:11:47;96011.22;;;0.90;100.00
27429;BME280;14881;48.092;11.574;2023-02-28T10:14:23;96009.16;;;0.92;100.00
27429;BME280;14881;48.092;11.574;2023-02-28T10:16:55;96012.13;;;1.09;100.00
27429;BME280;14881;48.092;11.574;2023-02-28T10:19:27;96008.38;;;1.17;100.00
27429;BME280;14881;48.092;11.574;2023-02-28T10:22:00;96013.53;;;1.12;100.00
27429;BME280;14881;48.092;11.574;2023-02-28T10:24:32;96019.28;;;1.15;100.00
27429;BME280;14881;48.092;11.574;2023-02-28T10:27:16;96010.63;;;1.20;100.00
27429;BME280;14881;48.092;11.574;2023-02-28T10:29:47;96013.03;;;1.21;100.00
27429;BME280;14881;48.092;11.574;2023-02-28T10:32:18;96019.16;;;1.28;100.00
27429;BME280;14881;48.092;11.574;2023-02-28T10:34:51;96024.97;;;1.50;100.00
27429;BME280;14881;48.092;11.574;2023-02-28T10:37:20;96025.13;;;1.55;100.00
27429;BME280;14881;48.092;11.574;2023-02-28T10:39:48;96030.63;;;1.60;100.00
27429;BME280;14881;48.092;11.574;2023-02-28T10:42:24;96028.78;;;1.79;100.00
27429;BME280;14881;48.092;11.574;2023-02-28T10:45:09;96027.47;;;1.88;100.00
27429;BME280;14881;48.092;11.574;2023-02-28T10:47:49;96026.13;;;1.79;100.00
27429;BME280;14881;48.092;11.574;2023-02-28T10:50:32;96026.91;;;1.61;100.00
27429;BME280;14881;48.092;11.574;2023-02-28T10:53:25;96036.84;;;1.97;100.00
27429;BME280;14881;48.092;11.574;2023-02-28T10:55:57;96031.72;;;2.14;100.00
27429;BME280;14881;48.092;11.574;2023-02-28T10:58:29;96030.53;;;2.76;100.00
27429;BME280;14881;48.092;11.574;2023-02-28T11:00:58;96020.50;;;3.25;100.00
27429;BME280;14881;48.092;11.574;2023-02-28T11:03:32;96018.31;;;4.15;100.00
27429;BME280;14881;48.092;11.574;2023-02-28T11:06:06;96029.53;;;4.12;100.00
27429;BME280;14881;48.092;11.574;2023-02-28T11:08:44;96017.59;;;4.60;100.00
27429;BME280;14881;48.092;11.574;2023-02-28T11:11:13;96023.50;;;4.74;100.00
27429;BME280;14881;48.092;11.574;2023-02-28T11:13:44;96017.19;;;4.80;100.00
27429;BME280;14881;48.092;11.574;2023-02-28T11:16:13;96018.69;;;4.76;100.00
27429;BME280;14881;48.092;11.574;2023-02-28T11:18:47;96015.44;;;4.74;100.00
27429;BME280;14881;48.092;11.574;2023-02-28T11:21:19;96013.78;;;4.84;100.00
27429;BME280;14881;48.092;11.574;2023-02-28T11:23:49;96014.72;;;5.40;100.00
27429;BME280;14881;48.092;11.574;2023-02-28T11:26:36;96017.97;;;6.09;100.00
27429;BME280;14881;48.092;11.574;2023-02-28T11:29:20;96007.38;;;6.24;96.88
27429;BME280;14881;48.092;11.574;2023-02-28T11:32:12;96009.88;;;6.09;99.68
27429;BME280;14881;48.092;11.574;2023-02-28T11:34:42;96010.09;;;6.46;94.31
27429;BME280;14881;48.092;11.574;2023-02-28T11:37:13;96006.41;;;6.52;94.10
27429;BME280;14881;48.092;11.574;2023-02-28T11:39:42;96001.56;;;6.33;92.88
27429;BME280;14881;48.092;11.574;2023-02-28T11:42:38;95999.00;;;6.21;96.44
27429;BME280;14881;48.092;11.574;2023-02-28T11:45:23;95998.16;;;5.65;99.37
27429;BME280;14881;48.092;11.574;2023-02-28T11:48:01;95995.81;;;5.52;100.00
27429;BME280;14881;48.092;11.574;2023-02-28T11:50:58;95984.50;;;5.21;100.00
27429;BME280;14881;48.092;11.574;2023-02-28T11:56:02;95991.50;;;4.89;100.00
27429;BME280;14881;48.092;11.574;2023-02-28T11:58:42;95992.53;;;4.88;100.00
27429;BME280;14881;48.092;11.574;2023-02-28T12:01:32;95993.47;;;4.94;100.00
27429;BME280;14881;48.092;11.574;2023-02-28T12:04:14;95988.50;;;5.02;100.00
27429;BME280;14881;48.092;11.574;2023-02-28T12:06:50;95987.09;;;4.83;100.00
27429;BME280;14881;48.092;11.574;2023-02-28T12:09:30;95987.28;;;4.65;100.00
27429;BME280;14881;48.092;11.574;2023-02-28T12:12:07;95985.31;;;4.60;100.00
27429;BME280;14881;48.092;11.574;2023-02-28T12:14:50;95987.41;;;4.58;100.00
27429;BME280;14881;48.092;11.574;2023-02-28T12:17:32;95988.00;;;4.60;100.00
27429;BME280;14881;48.092;11.574;2023-02-28T12:20:11;95982.53;;;4.83;100.00
27429;BME280;14881;48.092;11.574;2023-02-28T12:22:50;95979.53;;;5.13;100.00
27429;BME280;14881;48.092;11.574;2023-02-28T12:25:47;95969.59;;;5.31;100.00
27429;BME280;14881;48.092;11.574;2023-02-28T12:28:23;95972.72;;;5.78;100.00
27429;BME280;14881;48.092;11.574;2023-02-28T12:30:59;95968.56;;;5.87;96.68
27429;BME280;14881;48.092;11.574;2023-02-28T12:33:34;95956.09;;;5.64;94.99
27429;BME280;14881;48.092;11.574;2023-02-28T12:36:07;95957.91;;;5.42;99.27
27429;BME280;14881;48.092;11.574;2023-02-28T12:38:42;95958.38;;;5.05;100.00
27429;BME280;14881;48.092;11.574;2023-02-28T12:41:13;95953.19;;;5.15;100.00
27429;BME280;14881;48.092;11.574;2023-02-28T12:43:46;95956.31;;;5.79;100.00
27429;BME280;14881;48.092;11.574;2023-02-28T12:46:19;95957.44;;;6.44;100.00
27429;BME280;14881;48.092;11.574;2023-02-28T12:48:52;95942.09;;;6.98;95.49
27429;BME280;14881;48.092;11.574;2023-02-28T12:51:24;95932.47;;;7.07;87.94
27429;BME280;14881;48.092;11.574;2023-02-28T12:54:01;95939.56;;;6.86;91.99
27429;BME280;14881;48.092;11.574;2023-02-28T12:56:40;95944.69;;;6.61;88.07
27429;BME280;14881;48.092;11.574;2023-02-28T12:59:13;95943.81;;;6.82;90.91
27429;BME280;14881;48.092;11.574;2023-02-28T13:01:55;95941.28;;;6.97;87.58
27429;BME280;14881;48.092;11.574;2023-02-28T13:07:51;95954.03;;;5.88;87.64
27429;BME280;14881;48.092;11.574;2023-02-28T13:10:22;95954.47;;;5.63;97.78
27429;BME280;14881;48.092;11.574;2023-02-28T13:12:52;95957.66;;;5.27;100.00
27429;BME280;14881;48.092;11.574;2023-02-28T13:15:24;95959.31;;;4.66;100.00